Flight Track Log - Related Links

Times and Time Zones

All times are in EDT time to prevent confusion due to time zone crossing. See the UAL4457 flight status page for this flight to view local times or setup timezone preferences in your user account.

Time Position Orientation Groundspeed Altitude Reporting Facility
EDT Latitude Longitude Course Direction KTS MPH feet Rate Location/Type
Sat 05:31:59 PM 37.9750 -84.6731 221° Southwest 217 250 4,300  Level Indianapolis Center
Sat 05:33:01 PM 37.9408 -84.7364 236° Southwest 225 259 7,000 2,878 Climbing Indianapolis Center
Sat 05:34:00 PM 37.8450 -85.0600 238° Southwest  Level FlightAware Approximate
Sat 05:34:02 PM 37.9269 -84.8322 260° West 240 276 10,200  Level Indianapolis Center
Sat 05:35:00 PM 37.8020 -85.1775 247° West  Level FlightAware Approximate
Sat 05:35:04 PM 37.9294 -84.9228 272° West 252 290 11,500  Level Indianapolis Center
Sat 05:36:00 PM 37.7566 -85.2936 241° Southwest  Level FlightAware Approximate
Sat 05:36:05 PM 37.9108 -85.0386 259° West 321 369 12,500  Level Indianapolis Center
Sat 05:37:07 PM 37.8664 -85.1514 243° Southwest 349 402 13,600 1,317 Climbing Indianapolis Center
Sat 05:38:08 PM 37.8169 -85.2700 242° Southwest 373 429 15,200 1,951 Climbing Indianapolis Center
Sat 05:39:10 PM 37.7681 -85.3903 243° Southwest 381 438 17,600 2,341 Climbing Indianapolis Center
Sat 05:40:11 PM 37.7222 -85.5036 243° Southwest 369 425 20,000 2,049 Climbing Indianapolis Center
Sat 05:41:13 PM 37.6711 -85.6250 242° Southwest 373 429 21,800 1,610 Climbing Indianapolis Center
Sat 05:42:14 PM 37.6228 -85.7458 243° Southwest 383 441 23,300 1,561 Climbing Indianapolis Center
Sat 05:43:16 PM 37.5708 -85.8694 242° Southwest 392 451 25,000 1,707 Climbing Indianapolis Center
Sat 05:44:17 PM 37.5189 -85.9931 242° Southwest 395 455 26,800 1,902 Climbing Indianapolis Center
Sat 05:45:19 PM 37.4592 -86.1358 242° Southwest 392 451 28,900 1,887 Climbing Indianapolis Center
Sat 05:46:21 PM 37.4075 -86.2569 242° Southwest 390 449 30,700 1,759 Climbing Indianapolis Center
Sat 05:47:32 PM 37.3481 -86.4044 243° Southwest 397 457 32,800 1,557 Climbing Memphis Center
Sat 05:48:32 PM 37.2975 -86.5189 241° Southwest 392 451 34,100 1,190 Climbing Memphis Center
Sat 05:49:33 PM 37.2469 -86.6414 243° Southwest 398 458 35,200 950 Climbing Memphis Center
Sat 05:50:32 PM 37.1922 -86.7636 241° Southwest 398 458 36,000 403 Climbing Memphis Center
Sat 05:51:32 PM 37.1375 -86.8911 242° Southwest 410 472 36,000  Level Memphis Center
Sat 05:52:32 PM 37.0808 -87.0261 242° Southwest 433 498 36,000  Level Memphis Center
Sat 05:53:32 PM 37.0219 -87.1636 242° Southwest 449 517 36,000  Level Memphis Center
Sat 05:54:32 PM 36.9631 -87.3011 242° Southwest 449 517 36,000  Level Memphis Center
Sat 05:55:32 PM 36.9136 -87.4169 242° Southwest 444 511 36,000  Level Memphis Center
Sat 05:56:32 PM 36.8561 -87.5461 241° Southwest 438 504 36,000  Level Memphis Center
Sat 05:57:32 PM 36.7967 -87.6806 241° Southwest 438 504 36,000  Level Memphis Center
Sat 05:58:32 PM 36.7369 -87.8169 241° Southwest 444 511 36,000  Level Memphis Center
Sat 05:59:32 PM 36.6772 -87.9483 240° Southwest 444 511 36,000  Level Memphis Center
Sat 06:00:32 PM 36.6192 -88.0869 242° Southwest 444 511 36,000  Level Memphis Center
Sat 06:01:32 PM 36.5531 -88.2311 240° Southwest 444 511 36,000  Level Memphis Center
Sat 06:02:32 PM 36.4947 -88.3617 241° Southwest 439 505 36,000  Level Memphis Center
Sat 06:03:32 PM 36.4344 -88.4947 241° Southwest 439 505 36,000  Level Memphis Center
Sat 06:04:32 PM 36.3758 -88.6250 241° Southwest 445 512 36,000  Level Memphis Center
Sat 06:05:32 PM 36.3169 -88.7497 240° Southwest 435 501 36,000  Level Memphis Center
Sat 06:06:32 PM 36.2561 -88.8797 240° Southwest 435 501 36,000  Level Memphis Center
Sat 06:07:32 PM 36.1972 -89.0094 241° Southwest 435 501 36,000  Level Memphis Center
Sat 06:08:32 PM 36.1481 -89.1156 240° Southwest 435 501 36,000  Level Memphis Center
Sat 06:09:32 PM 36.0808 -89.2603 240° Southwest 440 506 36,000  Level Memphis Center
Sat 06:10:32 PM 36.0214 -89.3894 240° Southwest 440 506 36,000  Level Memphis Center
Sat 06:11:32 PM 35.9619 -89.5183 240° Southwest 440 506 36,000  Level Memphis Center
Sat 06:12:32 PM 35.9000 -89.6522 240° Southwest 440 506 36,000  Level Memphis Center
Sat 06:13:32 PM 35.8383 -89.7833 240° Southwest 440 506 36,000  Level Memphis Center
Sat 06:14:32 PM 35.7761 -89.9144 240° Southwest 440 506 36,000  Level Memphis Center
Sat 06:15:32 PM 35.6994 -90.0272 230° Southwest 440 506 36,000  Level Memphis Center
Sat 06:16:32 PM 35.6017 -90.1350 222° Southwest 429 494 36,000  Level Memphis Center
Sat 06:17:32 PM 35.5078 -90.2347 221° Southwest 444 511 36,000  Level Memphis Center
Sat 06:18:32 PM 35.4308 -90.3214 223° Southwest 444 511 36,000  Level Memphis Center
Sat 06:19:32 PM 35.3411 -90.4156 221° Southwest 433 498 36,000  Level Memphis Center
Sat 06:20:32 PM 35.2514 -90.5122 221° Southwest 438 504 36,000  Level Memphis Center
Sat 06:21:32 PM 35.1614 -90.6058 220° Southwest 433 498 36,000  Level Memphis Center
Sat 06:22:32 PM 35.0694 -90.7022 221° Southwest 438 504 36,000  Level Memphis Center
Sat 06:23:32 PM 34.9775 -90.8006 221° Southwest 438 504 36,000  Level Memphis Center
Sat 06:24:32 PM 34.8853 -90.8989 221° Southwest 438 504 36,000  Level Memphis Center
Sat 06:25:32 PM 34.7908 -90.9944 220° Southwest 444 511 36,000  Level Memphis Center
Sat 06:26:32 PM 34.7006 -91.0897 221° Southwest 436 502 36,000  Level Memphis Center
Sat 06:27:32 PM 34.6103 -91.1822 220° Southwest 431 496 36,000  Level Memphis Center
Sat 06:28:32 PM 34.5136 -91.2872 222° Southwest 436 502 36,000  Level Memphis Center
Sat 06:29:32 PM 34.4231 -91.3794 220° Southwest 436 502 36,000  Level Memphis Center
Sat 06:30:32 PM 34.3306 -91.4739 220° Southwest 436 502 36,000  Level Memphis Center
Sat 06:31:32 PM 34.2400 -91.5656 220° Southwest 441 507 36,000  Level Memphis Center
Sat 06:32:32 PM 34.1472 -91.6597 220° Southwest 433 498 36,000  Level Memphis Center
Sat 06:33:32 PM 34.0731 -91.7489 225° Southwest 433 498 36,000  Level Memphis Center
Sat 06:34:32 PM 33.9825 -91.8375 219° Southwest 433 498 36,000  Level Memphis Center
Sat 06:36:15 PM 33.8186 -91.9961 219° Southwest 427 491 36,000  Level Fort Worth Center
Sat 06:37:15 PM 33.7308 -92.0889 221° Southwest 421 484 36,000  Level Fort Worth Center
Sat 06:38:15 PM 33.6428 -92.1792 220° Southwest 416 479 36,000  Level Fort Worth Center
Sat 06:39:15 PM 33.5456 -92.2547 213° Southwest 416 479 36,000  Level Fort Worth Center
Sat 06:40:15 PM 33.4258 -92.2867 193° South 421 484 36,000  Level Fort Worth Center
Sat 06:41:15 PM 33.3042 -92.3211 193° South 431 496 36,000  Level Fort Worth Center
Sat 06:42:15 PM 33.1864 -92.3500 192° South 443 510 36,000  Level Fort Worth Center
Sat 06:43:15 PM 33.0689 -92.3817 193° South 443 510 36,000  Level Fort Worth Center
Sat 06:44:15 PM 32.9489 -92.4131 192° South 443 510 36,000  Level Fort Worth Center
Sat 06:45:15 PM 32.8292 -92.4469 193° South 443 510 36,000 -364 Level Fort Worth Center
Sat 06:47:00 PM 32.6217 -92.5044 193° South 444 511 35,000 -361 Descending Houston Center
Sat 06:48:01 PM 32.5181 -92.5325 193° South 443 510 35,000  Level Houston Center
Sat 06:49:03 PM 32.3758 -92.5703 193° South 439 505 35,000  Level Houston Center
Sat 06:50:05 PM 32.2558 -92.6019 193° South 442 509 35,000  Level Houston Center
Sat 06:51:06 PM 32.1336 -92.6347 193° South 449 517 35,000  Level Houston Center
Sat 06:52:08 PM 32.0136 -92.6675 193° South 444 511 35,000 -49 Level Houston Center
Sat 06:53:09 PM 31.9150 -92.7342 210° Southwest 417 480 34,900  Descending Houston Center
Sat 06:54:11 PM 31.8311 -92.8158 220° Southwest 396 456 35,000 48 Climbing Houston Center
Sat 06:55:13 PM 31.7444 -92.8978 219° Southwest 400 460 35,000  Level Houston Center
Sat 06:56:14 PM 31.6594 -92.9803 220° Southwest 398 458 35,000  Level Houston Center
Sat 06:57:15 PM 31.5569 -93.0783 219° Southwest 398 458 35,000  Level Houston Center
Sat 06:58:17 PM 31.4717 -93.1606 219° Southwest 400 460 35,000  Level Houston Center
Sat 06:59:18 PM 31.3861 -93.2436 220° Southwest 400 460 35,000  Level Houston Center
Sat 07:00:20 PM 31.2906 -93.3342 219° Southwest 403 464 35,000  Level Houston Center
Sat 07:01:21 PM 31.2125 -93.4081 219° Southwest 402 463 35,000  Level Houston Center
Sat 07:02:23 PM 31.1269 -93.4900 219° Southwest 400 460 35,000 -927 Level Houston Center
Sat 07:03:24 PM 31.0414 -93.5708 219° Southwest 398 458 33,100 -2,146 Descending Houston Center
Sat 07:04:26 PM 30.9408 -93.6672 219° Southwest 393 452 30,600 -2,274 Descending Houston Center
Sat 07:05:28 PM 30.8539 -93.7481 219° Southwest 401 461 28,400 -2,195 Descending Houston Center
Sat 07:06:29 PM 30.7628 -93.8347 219° Southwest 420 483 26,100 -2,390 Descending Houston Center
Sat 07:07:31 PM 30.6700 -93.9219 219° Southwest 432 497 23,500 -2,390 Descending Houston Center
Sat 07:08:32 PM 30.5828 -94.0039 219° Southwest 413 475 21,200 -2,400 Descending Houston Center
Sat 07:09:16 PM 30.5058 -94.0764 219° Southwest 394 453 19,300 -2,032 Descending Houston Center
Sat 07:09:34 PM 30.4978 -94.0833 217° Southwest 399 459 19,100 -2,082 Descending Houston Center
Sat 07:10:05 PM 30.4367 -94.1417 219° Southwest 394 453 17,600 -2,613 Descending Houston Center
Sat 07:10:36 PM 30.3958 -94.1800 219° Southwest 397 457 16,400 -2,361 Descending Houston Center
Sat 07:11:06 PM 30.3481 -94.2211 217° Southwest 390 449 15,200 -2,164 Descending Houston Center
Sat 07:11:37 PM 30.3133 -94.2556 221° Southwest 388 447 14,200 -2,032 Descending Houston Center
Sat 07:12:08 PM 30.2778 -94.2958 224° Southwest 339 390 13,100 -2,032 Descending Houston Center
Sat 07:12:39 PM 30.2561 -94.3367 238° Southwest 347 399 12,100 -1,000 Descending Houston Center
Sat 07:13:08 PM 30.2281 -94.3897 239° Southwest 314 361 12,100 -97 Level Houston Center
Sat 07:13:41 PM 30.2153 -94.4250 247° West 319 367 12,000 -484 Descending Houston Center
Sat 07:14:10 PM 30.1864 -94.4772 237° Southwest 307 353 11,600 -787 Descending Houston Center
Sat 07:14:42 PM 30.1739 -94.5092 246° West 302 348 11,200 -1,279 Descending Houston Center
Sat 07:15:11 PM 30.1497 -94.5547 238° Southwest 259 298 10,300 -1,258 Descending Houston Center
Sat 07:15:44 PM 30.1383 -94.5817 244° Southwest 267 307 9,900 -1,180 Descending Houston Center
Sat 07:16:12 PM 30.1167 -94.6264 241° Southwest 258 297 9,100 -1,180 Descending Houston Center
Sat 07:16:45 PM 30.1039 -94.6533 241° Southwest 258 297 8,700 -1,180 Descending Houston Center
Sat 07:17:13 PM 30.0800 -94.7014 240° Southwest 253 291 7,900 -1,355 Descending Houston Center
Sat 07:17:47 PM 30.0631 -94.7389 242° Southwest 255 293 7,300 -1,180 Descending Houston Center
Sat 07:18:14 PM 30.0469 -94.7731 241° Southwest 255 293 6,700 -1,065 Descending Houston Center
Sat 07:18:49 PM 30.0297 -94.8081 240° Southwest 250 288 6,200 -689 Descending Houston Center
Sat 07:19:15 PM 30.0131 -94.8378 237° Southwest 220 253 6,000 -492 Descending Houston Center
Sat 07:19:50 PM 30.0006 -94.8703 246° West 227 261 5,700 -689 Descending Houston Center
Sat 07:20:16 PM 29.9900 -94.9033 250° West 223 257 5,300 -774 Descending Houston Center
Sat 07:20:52 PM 29.9825 -94.9369 256° West 219 252 4,900 -871 Descending Houston Center
Sat 07:21:18 PM 29.9794 -94.9700 264° West 207 238 4,400 -787 Descending Houston Center
Sat 07:21:53 PM 29.9778 -95.0025 267° West 210 242 4,100 -787 Descending Houston Center
Sat 07:22:19 PM 29.9778 -95.0400 270° West 210 242 3,600 -677 Descending Houston Center
Sat 07:22:55 PM 29.9778 -95.0686 270° West 208 239 3,400 -492 Descending Houston Center
Sat 07:23:20 PM 29.9775 -95.1053 270° West 195 224 3,100 -393 Descending Houston Center
Sat 07:23:56 PM 29.9775 -95.1311 270° West 202 232 3,000 -689 Descending Houston Center
Sat 07:24:21 PM 29.9767 -95.1656 268° West 180 207 2,400 -1,065 Descending Houston Center
Sat 07:24:58 PM 29.9789 -95.1997 274° West 190 219 1,900 -885 Descending Houston Center
Sat 07:25:22 PM 29.9778 -95.2211 267° West 178 205 1,500 -677 Descending Houston Center
Sat 07:26:00 PM 29.9781 -95.2506 271° West 176 203 1,200 -787 Descending Houston Center
Sat 07:26:23 PM 29.9775 -95.2644 267° West 133 153 700 -787 Descending Houston Center
Sat 07:27:01 PM 29.9775 -95.2903 270° West 149 171 400 -474 Descending Houston Center

Login

Don't have an account? Register now (free) for customized features, flight alerts, and more!